Time;durP1;ratioP1;P1;durP2;ratioP2;P2;SDS_P1;SDS_P2;PMS_P1;PMS_P2;Temp;Humidity;BMP_temperature;BMP_pressure;BME280_temperature;BME280_humidity;BME280_pressure;Samples;Min_cycle;Max_cycle;Signal;HPM_P1;HPM_P2
2023/10/25 00:01:27;;;;;;;13.97;12.47;;;10.40;99.90;;;9.85;100.00;96862.59;4957385;28;20521;-84
2023/10/25 00:03:54;;;;;;;15.23;13.27;;;10.50;99.90;;;9.77;100.00;96854.84;4969170;28;20455;-85
2023/10/25 00:06:21;;;;;;;17.23;14.43;;;10.40;99.90;;;9.77;100.00;96854.84;4966472;28;20468;-84
2023/10/25 00:08:50;;;;;;;16.60;13.80;;;10.40;99.90;;;9.76;100.00;96866.69;4957086;28;20500;-86
2023/10/25 00:11:18;;;;;;;17.00;14.20;;;10.30;99.90;;;9.82;100.00;96873.03;4967188;28;20473;-79
2023/10/25 00:13:45;;;;;;;15.30;13.00;;;10.40;99.90;;;9.92;100.00;96873.25;4986777;28;20522;-79
2023/10/25 00:16:13;;;;;;;16.83;14.10;;;10.40;99.90;;;9.96;100.00;96863.59;4970987;28;20454;-77
2023/10/25 00:18:41;;;;;;;17.87;14.10;;;10.40;99.90;;;10.02;100.00;96876.16;4975418;28;20468;-80
2023/10/25 00:21:08;;;;;;;18.80;15.20;;;10.40;99.90;;;10.04;100.00;96862.41;4988703;28;20450;-82
2023/10/25 00:23:36;;;;;;;15.60;13.97;;;10.40;99.90;;;9.97;100.00;96877.94;4962950;28;20855;-79
2023/10/25 00:26:05;;;;;;;16.20;13.20;;;10.50;99.90;;;9.88;100.00;96875.59;4984863;28;20451;-78
2023/10/25 00:28:32;;;;;;;17.33;15.23;;;10.50;99.90;;;9.87;100.00;96871.25;4988573;28;20457;-77
2023/10/25 00:31:00;;;;;;;18.70;13.20;;;10.50;99.90;;;9.90;100.00;96873.47;4976465;28;20510;-79
2023/10/25 00:33:28;;;;;;;18.40;15.93;;;10.50;99.90;;;9.86;100.00;96869.63;4970031;28;20468;-82
2023/10/25 00:35:55;;;;;;;16.03;13.80;;;10.40;99.90;;;9.80;100.00;96875.97;4966762;28;20469;-78
2023/10/25 00:38:23;;;;;;;16.73;14.07;;;10.30;99.90;;;9.89;100.00;96874.53;4969283;28;20445;-81
2023/10/25 00:40:50;;;;;;;18.70;15.03;;;10.30;99.90;;;9.86;100.00;96879.59;4960194;28;20525;-80
2023/10/25 00:43:21;;;;;;;17.67;13.57;;;10.30;99.90;;;9.95;100.00;96882.75;4975274;28;20472;-82
2023/10/25 00:46:04;;;;;;;15.90;14.00;;;10.30;99.90;;;9.99;100.00;96886.59;4967724;28;20468;-81
2023/10/25 00:48:32;;;;;;;17.60;14.83;;;10.30;99.90;;;9.92;100.00;96879.44;4950030;28;20474;-77
2023/10/25 00:51:01;;;;;;;21.20;15.30;;;10.30;99.90;;;9.84;100.00;96882.53;4963548;28;20477;-80
2023/10/25 00:53:30;;;;;;;19.30;15.30;;;10.30;99.90;;;9.88;100.00;96874.78;4970041;28;20514;-81
2023/10/25 00:55:59;;;;;;;15.50;12.67;;;10.30;99.90;;;10.01;100.00;96884.47;4968770;28;20465;-82
2023/10/25 00:58:29;;;;;;;15.63;13.93;;;10.30;99.90;;;9.97;100.00;96884.13;4973713;28;20453;-82
2023/10/25 01:00:58;;;;;;;15.13;13.10;;;10.30;99.90;;;10.00;100.00;96875.53;4965745;28;20470;-80
2023/10/25 01:03:25;;;;;;;17.80;12.70;;;10.30;99.90;;;9.95;100.00;96871.94;4961107;28;20462;-83
2023/10/25 01:05:53;;;;;;;16.17;14.03;;;10.30;99.90;;;9.82;100.00;96849.56;4968165;28;20547;-77
2023/10/25 01:08:22;;;;;;;16.50;13.10;;;10.20;99.90;;;9.86;100.00;96864.22;4965417;28;20446;-81
2023/10/25 01:10:52;;;;;;;14.40;12.73;;;10.20;99.90;;;9.77;100.00;96863.78;4961104;28;20575;-81
2023/10/25 01:13:20;;;;;;;16.23;13.43;;;10.10;99.90;;;9.74;100.00;96866.13;4963744;28;20448;-80
2023/10/25 01:15:49;;;;;;;15.00;11.80;;;10.10;99.90;;;9.76;100.00;96861.31;4973621;28;20454;-81
2023/10/25 01:18:17;;;;;;;15.60;12.97;;;10.10;99.90;;;9.47;100.00;96855.84;4943594;28;20446;-81
2023/10/25 01:20:45;;;;;;;16.47;14.30;;;9.90;99.90;;;9.30;100.00;96848.50;4962814;28;20445;-82
2023/10/25 01:23:14;;;;;;;17.20;14.20;;;9.80;99.90;;;9.28;100.00;96858.69;4971292;28;20454;-80
2023/10/25 01:25:43;;;;;;;15.17;13.40;;;9.70;99.90;;;9.23;100.00;96860.44;4954508;28;20519;-83
2023/10/25 01:28:11;;;;;;;19.43;14.63;;;9.60;99.90;;;8.86;100.00;96780.69;4968839;28;20449;-80
2023/10/25 01:30:39;;;;;;;16.73;14.40;;;9.60;99.90;;;9.18;100.00;96840.41;4953220;28;20487;-80
2023/10/25 01:33:07;;;;;;;17.70;13.27;;;9.50;99.90;;;9.02;100.00;96835.75;4969037;28;20479;-84
2023/10/25 01:35:36;;;;;;;17.23;14.10;;;9.40;99.90;;;9.00;100.00;96840.53;4970643;28;20537;-79
2023/10/25 01:38:03;;;;;;;19.07;13.67;;;9.30;99.90;;;8.88;100.00;96837.84;4960847;28;20471;-83
2023/10/25 01:40:32;;;;;;;19.10;14.27;;;9.30;99.90;;;8.79;100.00;96846.28;4963578;28;20462;-78
2023/10/25 01:42:59;;;;;;;18.77;14.67;;;9.20;99.90;;;8.76;100.00;96846.75;4957575;28;20453;-83
2023/10/25 01:45:27;;;;;;;19.87;14.60;;;9.20;99.90;;;8.73;100.00;96849.91;4959286;28;20456;-81
2023/10/25 01:47:54;;;;;;;20.10;14.60;;;9.20;99.90;;;8.74;100.00;96843.47;4970410;28;20554;-82
2023/10/25 01:50:22;;;;;;;18.37;14.60;;;9.20;99.90;;;8.69;100.00;96851.41;4950850;28;20450;-81
2023/10/25 01:52:49;;;;;;;18.60;14.00;;;9.20;99.90;;;8.68;100.00;96848.97;4969032;28;20473;-80
2023/10/25 01:55:16;;;;;;;20.47;15.10;;;9.20;99.90;;;8.59;100.00;96822.34;4966687;28;20484;-85
2023/10/25 01:57:45;;;;;;;17.47;13.37;;;9.10;99.90;;;8.74;100.00;96839.94;4952360;28;20591;-81
2023/10/25 02:00:15;;;;;;;21.80;14.53;;;9.10;99.90;;;8.74;100.00;96843.47;4971352;28;20461;-86
2023/10/25 02:02:42;;;;;;;18.17;13.10;;;9.20;99.90;;;8.89;100.00;96844.88;4957976;28;20445;-80
2023/10/25 02:05:10;;;;;;;14.20;12.10;;;9.30;99.90;;;8.94;100.00;96842.31;4965836;28;20461;-83
2023/10/25 02:07:37;;;;;;;15.93;13.27;;;9.40;99.90;;;8.90;100.00;96841.94;4972973;28;20524;-77
2023/10/25 02:10:05;;;;;;;15.87;11.97;;;9.40;99.90;;;8.83;100.00;96837.72;4964570;28;22287;-82
2023/10/25 02:12:32;;;;;;;17.40;12.47;;;9.40;99.90;;;8.79;100.00;96838.19;4972622;28;20478;-84
2023/10/25 02:15:02;;;;;;;16.50;12.27;;;9.30;99.90;;;8.81;100.00;96835.28;4965188;28;20465;-84
2023/10/25 02:17:29;;;;;;;16.27;12.93;;;9.30;99.90;;;8.87;100.00;96836.19;4975003;28;20462;-82
2023/10/25 02:19:56;;;;;;;14.37;12.40;;;9.30;99.90;;;8.81;100.00;96831.75;4967293;28;20455;-83
2023/10/25 02:22:24;;;;;;;18.07;12.70;;;9.20;99.90;;;8.85;100.00;96830.22;4969716;28;20455;-82
2023/10/25 02:24:51;;;;;;;18.00;13.20;;;9.20;99.90;;;8.73;100.00;96841.81;4969045;28;20977;-79
2023/10/25 02:27:18;;;;;;;14.77;12.03;;;9.10;99.90;;;8.71;100.00;96841.22;4980745;28;20469;-80
2023/10/25 02:29:45;;;;;;;16.33;12.10;;;9.10;99.90;;;8.64;100.00;96832.44;4968563;28;20453;-84
2023/10/25 02:32:14;;;;;;;14.43;11.73;;;9.00;99.90;;;8.61;100.00;96849.06;4969674;28;20997;-82
2023/10/25 02:34:41;;;;;;;22.63;13.20;;;9.00;99.90;;;8.57;100.00;96842.47;4961680;28;20456;-82
2023/10/25 02:37:08;;;;;;;21.97;13.37;;;8.90;99.90;;;8.37;100.00;96822.03;4967628;28;20445;-81
2023/10/25 02:39:37;;;;;;;17.10;13.07;;;8.90;99.90;;;8.53;100.00;96852.06;4968887;28;20461;-83
2023/10/25 02:42:04;;;;;;;17.37;12.87;;;8.90;99.90;;;8.48;100.00;96856.25;4969643;28;20462;-82
2023/10/25 02:44:32;;;;;;;19.43;13.20;;;8.90;99.90;;;8.57;100.00;96848.69;4958452;28;20476;-83
2023/10/25 02:46:59;;;;;;;18.33;13.30;;;8.90;99.90;;;8.57;100.00;96847.88;4970168;28;20484;-81
2023/10/25 02:49:28;;;;;;;19.50;12.00;;;8.90;99.90;;;8.58;100.00;96847.63;4971265;28;20501;-83
2023/10/25 02:51:55;;;;;;;15.93;12.30;;;8.90;99.90;;;8.54;100.00;96842.94;4975746;28;20815;-80
2023/10/25 02:54:22;;;;;;;17.93;12.20;;;8.90;99.90;;;8.19;100.00;96788.78;4968147;28;20511;-83
2023/10/25 02:56:49;;;;;;;16.80;11.93;;;8.90;99.90;;;8.26;100.00;96787.84;4969796;28;20455;-79
2023/10/25 02:59:17;;;;;;;21.00;14.70;;;8.90;99.90;;;8.46;100.00;96834.13;4965860;28;21034;-79
2023/10/25 03:01:44;;;;;;;19.43;13.80;;;9.00;99.90;;;8.47;100.00;96838.47;4960583;28;20940;-79
2023/10/25 03:04:11;;;;;;;19.07;13.90;;;8.90;99.90;;;8.47;100.00;96837.63;4954316;28;20462;-82
2023/10/25 03:06:41;;;;;;;19.80;14.77;;;8.90;99.90;;;8.19;100.00;96810.31;4942248;28;20480;-75
2023/10/25 03:09:09;;;;;;;21.23;14.77;;;8.90;99.90;;;8.43;100.00;96849.91;4965363;28;21226;-83
2023/10/25 03:11:36;;;;;;;22.13;14.50;;;8.90;99.90;;;8.40;100.00;96840.41;4967767;28;20482;-84
2023/10/25 03:14:04;;;;;;;21.40;15.17;;;8.90;99.90;;;8.50;100.00;96839.91;4973381;28;20462;-82
2023/10/25 03:16:31;;;;;;;20.70;14.80;;;9.00;99.90;;;8.68;100.00;96835.50;4961009;28;20507;-82
2023/10/25 03:18:58;;;;;;;20.33;15.30;;;9.10;99.90;;;8.71;100.00;96841.22;4954938;28;20464;-83
2023/10/25 03:21:26;;;;;;;21.63;15.23;;;9.20;99.90;;;8.83;100.00;96826.94;4976300;28;20459;-80
2023/10/25 03:23:54;;;;;;;20.90;14.37;;;9.20;99.90;;;8.71;100.00;96827.75;4956949;28;20476;-79
2023/10/25 03:26:21;;;;;;;22.67;15.57;;;9.10;99.90;;;8.67;100.00;96826.59;4976695;28;20450;-81
2023/10/25 03:28:51;;;;;;;22.77;15.70;;;9.10;99.90;;;8.73;100.00;96817.59;4970359;28;20929;-83
2023/10/25 03:31:18;;;;;;;21.87;15.00;;;9.20;99.90;;;8.56;100.00;96811.22;4966429;28;20962;-81
2023/10/25 03:33:47;;;;;;;22.30;15.60;;;9.10;99.90;;;8.61;100.00;96811.38;4973112;28;20571;-84
2023/10/25 03:36:14;;;;;;;23.00;16.30;;;9.10;99.90;;;8.22;100.00;96772.16;4957610;28;20446;-82
2023/10/25 03:38:41;;;;;;;23.17;16.87;;;9.20;99.90;;;8.66;100.00;96835.72;4976472;28;20453;-76
2023/10/25 03:41:10;;;;;;;23.53;15.67;;;9.10;99.90;;;8.60;100.00;96831.28;4967645;28;20524;-83
2023/10/25 03:43:38;;;;;;;22.70;16.60;;;9.10;99.90;;;8.63;100.00;96837.00;4980177;28;20489;-81
2023/10/25 03:46:05;;;;;;;26.73;17.80;;;9.10;99.90;;;8.62;100.00;96829.16;4965813;28;20832;-82
2023/10/25 03:48:34;;;;;;;26.37;17.10;;;9.10;99.90;;;8.61;100.00;96833.72;4974523;28;20529;-82
2023/10/25 03:51:04;;;;;;;22.43;15.43;;;9.10;99.90;;;8.64;100.00;96840.50;4968721;28;20462;-79
2023/10/25 03:53:33;;;;;;;20.03;15.83;;;9.00;99.90;;;8.52;100.00;96842.34;4970709;28;20813;-81
2023/10/25 03:56:00;;;;;;;20.50;15.87;;;9.00;99.90;;;8.52;100.00;96818.97;4967893;28;20454;-80
2023/10/25 03:58:29;;;;;;;24.17;15.73;;;9.00;99.90;;;8.60;100.00;96826.69;4950903;28;20448;-82
2023/10/25 04:01:00;;;;;;;25.67;15.77;;;9.10;99.90;;;8.48;100.00;96802.41;4967049;28;20461;-78
2023/10/25 04:03:28;;;;;;;21.10;15.03;;;9.00;99.90;;;8.44;100.00;96808.50;4969265;28;21241;-82
2023/10/25 04:05:56;;;;;;;20.73;15.80;;;9.00;99.90;;;8.35;100.00;96802.63;4972105;28;20467;-79
2023/10/25 04:08:24;;;;;;;26.27;16.67;;;8.90;99.90;;;8.30;100.00;96805.19;4966489;28;20461;-82
2023/10/25 04:10:53;;;;;;;25.20;16.00;;;8.90;99.90;;;8.16;100.00;96809.94;4961452;28;20484;-83
2023/10/25 04:13:21;;;;;;;23.73;15.33;;;8.70;99.90;;;8.10;100.00;96806.28;4968435;28;21037;-84
2023/10/25 04:15:56;;;;;;;22.53;15.20;;;8.60;99.90;;;8.04;100.00;96804.53;4971199;28;20976;-78
2023/10/25 04:18:25;;;;;;;22.87;16.13;;;8.60;99.90;;;7.94;100.00;96808.56;4965612;28;20496;-81
2023/10/25 04:20:53;;;;;;;24.90;16.80;;;8.60;99.90;;;7.90;100.00;96806.59;4967953;28;20501;-75
2023/10/25 04:23:20;;;;;;;23.40;16.17;;;8.50;99.90;;;7.75;100.00;96790.84;4968395;28;20515;-78
2023/10/25 04:25:48;;;;;;;25.60;15.30;;;8.50;99.90;;;7.74;100.00;96802.66;4950260;28;20784;-84
2023/10/25 04:28:18;;;;;;;28.90;17.03;;;8.50;99.90;;;7.75;100.00;96777.41;4971520;28;20465;-84
2023/10/25 04:30:46;;;;;;;34.33;17.40;;;8.50;99.90;;;7.81;100.00;96792.66;4963248;28;20461;-84
2023/10/25 04:33:15;;;;;;;25.27;17.23;;;8.50;99.90;;;7.70;100.00;96801.47;4951689;28;20473;-83
2023/10/25 04:35:42;;;;;;;32.53;17.93;;;8.40;99.90;;;7.72;100.00;96792.13;4972520;28;20448;-83
2023/10/25 04:38:10;;;;;;;26.40;16.73;;;8.30;99.90;;;7.88;100.00;96803.28;4967796;28;20477;-77
2023/10/25 04:40:37;;;;;;;26.13;17.70;;;8.40;99.90;;;7.83;100.00;96809.38;4961446;28;20921;-78
2023/10/25 04:43:05;;;;;;;32.07;18.03;;;8.40;99.90;;;7.87;100.00;96801.66;4970711;28;20468;-82
2023/10/25 04:45:32;;;;;;;29.37;18.10;;;8.40;99.90;;;7.89;100.00;96788.81;4948532;28;20461;-83
2023/10/25 04:47:59;;;;;;;28.97;17.40;;;8.50;99.90;;;7.96;100.00;96799.47;4974502;28;20957;-78
2023/10/25 04:50:32;;;;;;;31.33;18.97;;;8.60;99.90;;;8.10;100.00;96792.84;4953603;28;20450;-81
2023/10/25 04:52:59;;;;;;;30.83;19.13;;;8.60;99.90;;;7.67;100.00;96792.00;4986246;28;20483;-76
2023/10/25 04:55:29;;;;;;;31.30;17.80;;;8.60;99.90;;;7.91;100.00;96787.53;4970134;28;20464;-87
2023/10/25 04:57:57;;;;;;;29.30;17.70;;;8.60;99.90;;;7.85;100.00;96788.44;4970854;28;20445;-86
2023/10/25 05:00:24;;;;;;;37.77;19.90;;;8.60;99.90;;;7.73;100.00;96772.25;4972741;28;20512;-78
2023/10/25 05:02:52;;;;;;;32.40;19.00;;;8.60;99.90;;;7.73;100.00;96780.31;4972519;28;20452;-78
2023/10/25 05:05:19;;;;;;;31.33;18.40;;;8.50;99.90;;;7.61;100.00;96777.59;4957721;28;20457;-81
2023/10/25 05:07:49;;;;;;;33.50;17.80;;;8.50;99.90;;;7.62;100.00;96770.34;4972324;28;20512;-83
2023/10/25 05:10:17;;;;;;;38.70;21.10;;;8.50;99.90;;;7.63;100.00;96763.94;4972707;28;20460;-80
2023/10/25 05:12:47;;;;;;;37.50;20.50;;;8.40;99.90;;;7.52;100.00;96773.59;4970619;28;20507;-84
2023/10/25 05:15:16;;;;;;;36.47;19.93;;;8.30;99.90;;;7.59;100.00;96768.94;4991234;28;20467;-82
2023/10/25 05:17:46;;;;;;;35.97;19.10;;;8.40;99.90;;;7.68;100.00;96763.25;4973319;28;20471;-79
2023/10/25 05:20:14;;;;;;;44.27;19.90;;;8.40;99.90;;;8.00;100.00;96763.81;4969628;28;20455;-85
2023/10/25 05:22:44;;;;;;;41.93;21.57;;;8.60;99.90;;;7.94;100.00;96765.53;4970648;28;20497;-78
2023/10/25 05:25:14;;;;;;;38.63;20.70;;;8.70;99.90;;;7.82;100.00;96751.28;4958024;28;20481;-84
2023/10/25 05:27:42;;;;;;;35.90;19.93;;;8.60;99.90;;;7.68;100.00;96741.75;4950062;28;21239;-85
2023/10/25 05:30:15;;;;;;;39.57;21.70;;;8.60;99.90;;;7.68;100.00;96744.44;4974615;28;20460;-84
2023/10/25 05:32:46;;;;;;;38.23;20.53;;;8.50;99.90;;;7.81;100.00;96738.88;4971096;28;20495;-72
2023/10/25 05:35:15;;;;;;;42.40;22.13;;;8.50;99.90;;;7.85;100.00;96749.97;4947565;28;20521;-76
2023/10/25 05:37:43;;;;;;;37.40;19.93;;;8.60;99.90;;;7.76;100.00;96731.50;4982467;28;20503;-69
2023/10/25 05:40:13;;;;;;;37.07;20.70;;;8.60;99.90;;;8.04;100.00;96737.28;4968468;28;20457;-71
2023/10/25 05:42:47;;;;;;;41.93;21.70;;;8.70;99.90;;;8.04;100.00;96748.03;4967306;28;20464;-71
2023/10/25 05:45:15;;;;;;;31.57;18.70;;;8.70;99.90;;;8.11;100.00;96746.06;4962830;28;20464;-71
2023/10/25 05:47:43;;;;;;;40.43;23.57;;;8.70;99.90;;;7.87;100.00;96748.69;4952379;28;20476;-69
2023/10/25 05:50:12;;;;;;;39.40;21.67;;;8.70;99.90;;;8.20;100.00;96758.13;4968314;28;20457;-72
2023/10/25 05:52:44;;;;;;;32.33;20.60;;;8.80;99.90;;;8.17;100.00;96752.38;4965800;28;20476;-70
2023/10/25 05:55:15;;;;;;;38.93;23.10;;;8.80;99.90;;;8.12;100.00;96745.03;4964199;28;20456;-70
2023/10/25 05:57:45;;;;;;;39.53;21.17;;;8.80;99.90;;;8.00;100.00;96755.75;4969551;28;20527;-70
2023/10/25 06:00:14;;;;;;;39.60;20.80;;;8.80;99.90;;;8.08;100.00;96749.22;4974957;28;20440;-68
2023/10/25 06:02:45;;;;;;;36.33;22.03;;;8.70;99.90;;;7.97;100.00;96758.91;4954128;28;20455;-71
2023/10/25 06:05:14;;;;;;;39.67;21.90;;;8.70;99.90;;;8.05;100.00;96761.28;4965866;28;20465;-76
2023/10/25 06:07:43;;;;;;;35.70;21.57;;;8.70;99.90;;;8.08;100.00;96754.59;4953564;28;20455;-73
2023/10/25 06:10:13;;;;;;;38.47;23.07;;;8.70;99.90;;;8.00;100.00;96765.69;4941652;28;21534;-72
2023/10/25 06:12:41;;;;;;;38.43;22.53;;;8.70;99.90;;;7.94;100.00;96765.53;4968727;28;20495;-72
2023/10/25 06:15:10;;;;;;;44.10;21.87;;;8.70;99.90;;;8.05;100.00;96771.19;4954482;28;20512;-72
2023/10/25 06:17:38;;;;;;;39.90;22.03;;;8.70;99.90;;;8.29;100.00;96765.88;4967453;28;20494;-72
2023/10/25 06:20:07;;;;;;;38.23;21.43;;;8.90;99.90;;;8.28;100.00;96775.00;4946506;28;20454;-71
2023/10/25 06:22:34;;;;;;;38.23;22.20;;;8.90;99.90;;;8.37;100.00;96778.97;4956037;28;20458;-71
2023/10/25 06:25:03;;;;;;;47.30;22.37;;;9.00;99.90;;;8.10;100.00;96779.38;4966322;28;20450;-71
2023/10/25 06:27:32;;;;;;;39.20;22.17;;;8.80;99.90;;;8.20;100.00;96776.97;4972755;28;20523;-71
2023/10/25 06:29:59;;;;;;;39.00;23.20;;;8.90;99.90;;;8.22;100.00;96782.13;4951566;28;20477;-71
2023/10/25 06:32:26;;;;;;;37.37;20.97;;;8.90;99.90;;;8.30;100.00;96775.59;4965813;28;20481;-72
2023/10/25 06:34:54;;;;;;;42.40;22.33;;;8.90;99.90;;;8.44;100.00;96771.63;4952351;28;20454;-73
2023/10/25 06:37:22;;;;;;;36.03;22.00;;;9.00;99.90;;;8.42;100.00;96775.59;4966218;28;20449;-72
2023/10/25 06:39:50;;;;;;;35.30;22.60;;;9.00;99.90;;;8.28;100.00;96775.00;4964488;28;20477;-71
2023/10/25 06:42:18;;;;;;;35.30;21.40;;;9.00;99.90;;;8.31;100.00;96778.03;4950336;28;20481;-72
2023/10/25 06:44:48;;;;;;;33.50;20.80;;;8.90;99.90;;;8.29;100.00;96782.03;4956025;28;20445;-72
2023/10/25 06:47:16;;;;;;;33.43;21.03;;;9.00;99.90;;;8.17;100.00;96779.28;4953705;28;20641;-72
2023/10/25 06:49:44;;;;;;;32.67;20.93;;;8.90;99.90;;;8.28;100.00;96775.00;4967921;28;20468;-73
2023/10/25 06:52:12;;;;;;;36.97;21.07;;;8.90;99.90;;;8.36;100.00;96777.34;4966379;28;20460;-73
2023/10/25 06:54:40;;;;;;;37.30;22.90;;;8.90;99.90;;;8.39;100.00;96771.50;4956624;28;20474;-73
2023/10/25 06:57:09;;;;;;;33.47;22.20;;;8.90;99.90;;;8.30;100.00;96767.53;4963907;28;20462;-72
2023/10/25 06:59:38;;;;;;;37.00;21.63;;;9.00;99.90;;;8.29;100.00;96777.44;4956102;28;20457;-72
2023/10/25 07:02:19;;;;;;;30.90;20.27;;;9.00;99.90;;;8.33;100.00;96767.84;4955239;28;20485;-72
2023/10/25 07:04:47;;;;;;;33.93;20.50;;;8.90;99.90;;;8.25;100.00;96765.53;4967661;28;20470;-73
2023/10/25 07:07:17;;;;;;;33.27;21.07;;;8.90;99.90;;;8.31;100.00;96753.81;4952230;28;23733;-73
2023/10/25 07:09:45;;;;;;;31.00;20.90;;;9.00;99.90;;;8.34;100.00;96763.31;4969205;28;20834;-72
2023/10/25 07:12:12;;;;;;;36.07;23.07;;;9.00;99.90;;;8.46;100.00;96761.47;4963722;28;20469;-72
2023/10/25 07:14:39;;;;;;;32.20;23.00;;;9.00;99.90;;;8.54;100.00;96759.50;4967056;28;20457;-72
2023/10/25 07:17:08;;;;;;;30.77;21.43;;;9.10;99.90;;;8.52;100.00;96748.13;4957963;28;20461;-74
2023/10/25 07:19:35;;;;;;;30.60;21.23;;;9.10;99.90;;;8.50;100.00;96749.19;4965638;28;20464;-73
2023/10/25 07:22:02;;;;;;;29.73;19.50;;;9.10;99.90;;;8.60;100.00;96745.91;4972384;28;20451;-74
2023/10/25 07:24:30;;;;;;;30.30;22.03;;;9.10;99.90;;;8.65;100.00;96750.59;4962079;28;20941;-73
2023/10/25 07:26:57;;;;;;;30.30;20.87;;;9.10;99.90;;;8.65;100.00;96745.22;4960759;28;21006;-73
2023/10/25 07:29:25;;;;;;;27.20;19.13;;;9.20;99.90;;;8.72;100.00;96745.94;4965226;28;20480;-72
2023/10/25 07:31:52;;;;;;;30.80;19.13;;;9.30;99.90;;;8.89;100.00;96746.03;4951996;28;20484;-73
2023/10/25 07:34:21;;;;;;;29.47;20.23;;;9.40;99.90;;;8.87;100.00;96744.63;4964413;28;20473;-72
2023/10/25 07:36:48;;;;;;;31.37;19.33;;;9.40;99.90;;;8.84;100.00;96731.63;4961440;28;20476;-72
2023/10/25 07:39:16;;;;;;;30.07;19.50;;;9.50;99.90;;;9.00;100.00;96733.59;4952006;28;20443;-71
2023/10/25 07:41:43;;;;;;;27.63;20.10;;;9.50;99.90;;;8.88;100.00;96719.34;4960882;28;20461;-72
2023/10/25 07:44:10;;;;;;;31.47;21.30;;;9.60;99.90;;;8.99;100.00;96742.72;4953213;28;20458;-76
2023/10/25 07:46:39;;;;;;;27.43;19.20;;;9.60;99.90;;;9.06;100.00;96742.59;4952640;28;20470;-77
2023/10/25 07:49:07;;;;;;;30.37;20.70;;;9.60;99.90;;;9.39;100.00;96743.00;4955975;28;20456;-78
2023/10/25 07:51:36;;;;;;;27.37;20.00;;;9.80;99.90;;;9.38;100.00;96723.31;4966773;28;20463;-78
2023/10/25 07:54:03;;;;;;;25.20;17.90;;;9.90;99.90;;;9.28;100.00;96732.00;4965459;28;20494;-78
2023/10/25 07:56:31;;;;;;;25.40;18.30;;;9.90;99.90;;;9.27;100.00;96722.28;4956735;28;20465;-69
2023/10/25 07:58:58;;;;;;;23.77;17.80;;;9.90;99.90;;;9.39;100.00;96726.84;4952717;28;20837;-69
2023/10/25 08:01:26;;;;;;;24.40;17.97;;;10.00;99.90;;;9.39;100.00;96711.47;4964238;28;20481;-72
2023/10/25 08:03:53;;;;;;;23.03;17.50;;;10.00;99.90;;;9.53;100.00;96719.28;4954035;28;21262;-71
2023/10/25 08:06:20;;;;;;;19.53;15.33;;;10.10;99.90;;;9.49;100.00;96708.16;4963681;28;20489;-72
2023/10/25 08:08:49;;;;;;;22.43;17.20;;;10.10;99.90;;;9.54;100.00;96705.56;4960983;28;20456;-73
2023/10/25 08:11:16;;;;;;;21.47;16.97;;;10.20;99.70;;;9.82;100.00;96711.16;4951352;28;23238;-73
2023/10/25 08:13:44;;;;;;;19.53;16.20;;;10.30;99.90;;;10.06;100.00;96712.69;4953212;28;20986;-72
2023/10/25 08:16:11;;;;;;;19.10;15.90;;;10.60;99.70;;;10.31;100.00;96721.44;4965654;28;20465;-73
2023/10/25 08:18:38;;;;;;;19.27;15.73;;;10.80;98.10;;;10.36;100.00;96702.63;4949635;28;21048;-71
2023/10/25 08:21:13;;;;;;;18.97;14.77;;;11.00;96.00;;;10.47;100.00;96700.94;4955417;28;20461;-71
2023/10/25 08:23:40;;;;;;;16.50;14.00;;;11.10;95.60;;;10.54;100.00;96690.78;4962478;28;20452;-72
2023/10/25 08:26:09;;;;;;;18.83;14.40;;;11.20;94.40;;;10.76;99.69;96690.00;4962787;28;20489;-73
2023/10/25 08:28:36;;;;;;;16.77;14.20;;;11.30;94.60;;;10.63;99.57;96702.81;4953055;28;20477;-76
2023/10/25 08:31:11;;;;;;;14.37;12.87;;;11.30;93.50;;;10.99;97.75;96690.84;4964038;28;20448;-73
2023/10/25 08:33:38;;;;;;;15.33;13.73;;;11.50;93.80;;;10.72;97.21;96705.06;4961328;28;20607;-75
2023/10/25 08:36:07;;;;;;;15.43;12.90;;;11.40;92.60;;;10.57;98.42;96695.69;4965779;28;20451;-73
2023/10/25 08:38:35;;;;;;;14.87;12.93;;;11.30;93.20;;;10.70;97.24;96704.50;4965044;28;20456;-72
2023/10/25 08:41:04;;;;;;;13.33;11.93;;;11.30;92.90;;;10.31;100.00;96697.16;4968231;28;20485;-72
2023/10/25 08:43:33;;;;;;;13.70;12.30;;;11.10;93.30;;;10.33;100.00;96695.03;4952044;28;20460;-72
2023/10/25 08:46:03;;;;;;;15.63;13.10;;;10.90;94.30;;;10.39;100.00;96691.34;4962251;28;20448;-72
2023/10/25 08:48:30;;;;;;;14.23;12.70;;;11.00;94.60;;;10.77;99.46;96692.44;4983068;28;20445;-72
2023/10/25 08:50:59;;;;;;;14.73;12.77;;;11.20;94.60;;;10.71;97.00;96693.47;4960135;28;20465;-72
2023/10/25 08:53:28;;;;;;;14.67;12.13;;;11.30;92.60;;;10.88;95.91;96695.31;4964536;28;20498;-72
2023/10/25 08:55:57;;;;;;;15.80;12.57;;;11.50;92.40;;;10.97;96.62;96693.78;4958343;28;20520;-74
2023/10/25 08:58:26;;;;;;;14.07;12.23;;;11.60;92.50;;;11.09;95.49;96695.56;4956512;28;20456;-72
2023/10/25 09:00:56;;;;;;;13.47;12.07;;;11.60;92.30;;;10.94;95.95;96693.50;4966229;28;20461;-73
2023/10/25 09:03:42;;;;;;;13.13;11.67;;;11.60;92.50;;;10.69;98.81;96692.06;4963213;28;20450;-72
2023/10/25 09:06:11;;;;;;;11.80;10.60;;;11.40;92.40;;;10.96;95.28;96681.34;4952614;28;20480;-72
2023/10/25 09:08:39;;;;;;;11.27;10.07;;;11.50;92.20;;;10.98;94.14;96687.31;4949503;28;20852;-73
2023/10/25 09:11:09;;;;;;;12.40;10.40;;;11.70;91.60;;;11.36;92.21;96675.88;4962309;28;20457;-73
2023/10/25 09:13:42;;;;;;;9.30;8.40;;;11.80;91.20;;;11.64;91.50;96668.59;4966301;28;20479;-73
2023/10/25 09:16:12;;;;;;;14.93;9.93;;;12.00;91.20;;;11.33;90.64;96675.31;4961122;28;20551;-73
2023/10/25 09:18:41;;;;;;;9.73;8.83;;;12.10;90.20;;;11.15;90.90;96668.34;4952519;28;20527;-73
2023/10/25 09:21:10;;;;;;;9.30;7.10;;;11.90;90.20;;;11.21;91.23;96671.94;4952006;28;20460;-73
2023/10/25 09:23:37;;;;;;;7.70;7.00;;;11.80;90.30;;;11.10;90.16;96662.06;4956830;28;20465;-73
2023/10/25 09:26:15;;;;;;;8.30;7.57;;;11.80;89.90;;;10.82;92.63;96663.88;4964913;28;20547;-73
2023/10/25 09:28:45;;;;;;;8.83;7.60;;;11.60;90.40;;;10.79;93.57;96665.19;4954645;28;20556;-73
2023/10/25 09:31:24;;;;;;;7.33;6.63;;;11.50;90.90;;;11.10;93.41;96653.94;4963753;28;20465;-73
2023/10/25 09:33:52;;;;;;;8.77;7.87;;;11.60;91.50;;;11.19;89.66;96649.75;4961691;28;20529;-73
2023/10/25 09:36:20;;;;;;;8.30;7.50;;;11.90;90.10;;;10.80;91.98;96666.00;4955020;28;20763;-72
2023/10/25 09:38:50;;;;;;;8.20;7.10;;;11.60;90.20;;;10.94;91.47;96644.84;4954549;28;20783;-72
2023/10/25 09:41:18;;;;;;;8.23;7.40;;;11.70;90.30;;;11.20;90.14;96664.88;4954254;28;20857;-70
2023/10/25 09:43:48;;;;;;;8.33;7.60;;;11.70;90.10;;;11.05;89.09;96652.81;4968624;28;20615;-69
2023/10/25 09:46:18;;;;;;;6.73;6.10;;;11.70;89.60;;;11.05;88.17;96650.13;4969124;28;20965;-69
2023/10/25 09:48:56;;;;;;;7.63;6.83;;;11.80;88.70;;;11.18;89.03;96645.41;4971660;28;20919;-69
2023/10/25 09:51:46;;;;;;;8.23;7.43;;;11.70;89.60;;;11.24;89.00;96628.16;4967993;28;20464;-73
2023/10/25 09:54:14;;;;;;;7.33;6.40;;;11.80;89.50;;;11.73;86.89;96646.22;4964421;28;20473;-81
2023/10/25 09:56:43;;;;;;;7.20;6.60;;;12.10;89.30;;;11.90;85.18;96635.28;4946778;28;20798;-87
2023/10/25 09:59:13;;;;;;;7.43;6.70;;;12.40;88.40;;;11.58;86.60;96632.56;4964810;28;20469;-79
2023/10/25 10:01:41;;;;;;;8.30;7.50;;;12.30;88.00;;;12.08;83.23;96622.47;4966001;28;21108;-81
2023/10/25 10:04:22;;;;;;;6.80;6.20;;;12.70;87.20;;;11.44;85.69;96629.44;4974785;28;20465;-81
2023/10/25 10:07:10;;;;;;;7.77;7.00;;;12.30;87.20;;;11.07;87.59;96622.03;4960110;28;20544;-83
2023/10/25 10:09:45;;;;;;;8.10;7.07;;;12.00;87.30;;;11.38;87.91;96614.25;4967111;28;20505;-81
2023/10/25 10:12:14;;;;;;;7.63;6.83;;;12.00;88.40;;;11.34;86.96;96601.25;4958598;28;20500;-82
2023/10/25 10:14:42;;;;;;;8.90;8.10;;;12.10;88.00;;;11.72;87.14;96595.06;4962496;28;20492;-85
2023/10/25 10:17:12;;;;;;;8.00;7.03;;;12.20;88.60;;;11.65;86.27;96594.47;4959658;28;20496;-82